ADDS METAR Data INFO
IDs: Format: Raw Decoded Include TAF

Data at: 1148 UTC 23 Jun 2018

KBCB 231135Z AUTO 00000KT 10SM OVC003 20/19 A2993 RMK AO2 T01960193
KBCB 231115Z AUTO 00000KT 10SM OVC003 20/19 A2993 RMK AO2 T01950191
KBCB 231055Z AUTO 10003KT 10SM OVC003 19/19 A2992 RMK AO2 T01920190
KBCB 231035Z AUTO 10004KT 10SM OVC005 19/19 A2991 RMK AO2 T01920190
KBCB 231015Z AUTO 11005KT 10SM OVC005 19/19 A2991 RMK AO2 T01930191
KBCB 230955Z AUTO 11005KT 10SM OVC005 19/19 A2991 RMK AO2 T01920191
KBCB 230935Z AUTO 11004KT 10SM OVC005 19/19 A2992 RMK AO2 T01930190
KBCB 230915Z AUTO 12005KT 10SM OVC005 20/19 A2991 RMK AO2 T01950191
KBCB 230855Z AUTO 00000KT 10SM OVC005 20/19 A2991 RMK AO2 T01960192
KBCB 230835Z AUTO 09005KT 10SM OVC005 20/19 A2990 RMK AO2 T01960192
KBCB 230815Z AUTO 10006KT 10SM OVC005 20/19 A2990 RMK AO2 T01960192
KBCB 230755Z AUTO 10004KT 10SM OVC005 20/19 A2991 RMK AO2 T01960192
KBCB 230735Z AUTO 09003KT 10SM OVC005 20/19 A2991 RMK AO2 T01960192
KBCB 230715Z AUTO 09003KT 10SM OVC003 20/19 A2990 RMK AO2 T01950192
KBCB 230655Z AUTO 12004KT 10SM OVC003 19/19 A2991 RMK AO2 T01930192
KBCB 230635Z AUTO 11007KT 10SM OVC003 20/19 A2991 RMK AO2 T01950193
KBCB 230615Z AUTO 11004KT 10SM OVC003 20/19 A2991 RMK AO2 T01950193
KBCB 230555Z AUTO 11006KT 10SM OVC003 20/19 A2991 RMK AO2 T01950193 10235 20195
KBCB 230535Z AUTO 11004KT 10SM OVC005 20/20 A2991 RMK AO2 T01970195
KBCB 230515Z AUTO 00000KT 10SM OVC005 20/20 A2991 RMK AO2 T01970195
KBCB 230455Z AUTO 07004KT 10SM OVC005 20/20 A2991 RMK AO2 T01970195 402790180
KBCB 230435Z AUTO 08003KT 10SM OVC005 20/20 A2992 RMK AO2 T01980195
KBCB 230415Z AUTO 10005KT 10SM OVC005 20/20 A2992 RMK AO2 T01980195
KBCB 230355Z AUTO 09007KT 10SM OVC005 20/20 A2993 RMK AO2 T01980195
KBCB 230335Z AUTO 11005KT 10SM -DZ OVC005 20/20 A2992 RMK AO2 T02000196
KBCB 230315Z AUTO 11006KT 10SM -DZ OVC003 20/20 A2993 RMK AO2 T02010199
KBCB 230255Z AUTO 11006KT 10SM OVC003 20/20 A2992 RMK AO2 T02020200
KBCB 230235Z AUTO 10004KT 10SM OVC003 20/20 A2992 RMK AO2 T02020201
KBCB 230215Z AUTO 08005KT 7SM OVC003 20/20 A2992 RMK AO2 T02030202
KBCB 230155Z AUTO 07005KT 10SM BKN003 20/20 A2992 RMK AO2 T02030202
KBCB 230135Z AUTO 10006KT 10SM SCT001 20/20 A2991 RMK AO2 T02040201
KBCB 230115Z AUTO 12003KT 10SM CLR 21/20 A2989 RMK AO2 T02050199
KBCB 230055Z AUTO 10005KT 10SM CLR 21/20 A2989 RMK AO2 T02100195
KBCB 230035Z AUTO 10005KT 10SM SCT110 22/20 A2989 RMK AO2 T02150200
KBCB 230015Z AUTO 00000KT 10SM SCT110 21/21 A2989 RMK AO2 LTG DSNT N T02110205
KBCB 222355Z AUTO 00000KT 10SM VCTS SCT080 BKN110 24/20 A2989 RMK AO2 60009 T02350200 10260 20213
KBCB 222335Z AUTO 09003KT 10SM SCT080 SCT120 23/20 A2989 RMK AO2 LTG DSNT N T02310201
KBCB 222315Z AUTO 15003KT 10SM CLR 24/20 A2987 RMK AO2 LTG DSNT NE T02360199
KBCB 222255Z AUTO 14004KT 10SM SCT075 SCT085 24/20 A2987 RMK AO2 LTG DSNT E T02350200
KBCB 222235Z AUTO 14008KT 10SM SCT012 BKN065 OVC085 24/21 A2987 RMK AO2 LTG DSNT E AND SE T02360211
KBCB 222215Z AUTO 14006KT 7SM -VCTSDZ SCT065 OVC095 23/21 A2987 RMK AO2 LTG DSNT SE AND NW T02260206
KBCB 222155Z AUTO 15004KT 10SM -VCTSRA SCT032 SCT055 OVC095 23/21 A2988 RMK AO2 LTG DSNT SE AND NW P0001 T02250209
KBCB 222135Z AUTO 00000KT 10SM -RA SCT032 BKN070 OVC110 23/21 A2988 RMK AO2 LTG DSNT S T02270210
KBCB 222115Z AUTO 25003KT 10SM RA SCT032 SCT046 BKN100 23/21 A2988 RMK AO2 LTG DSNT S T02330210
KBCB 222055Z AUTO 00000KT 10SM SCT070 23/21 A2988 RMK AO2 LTG DSNT NE S AND NW 60008 T02250208
KBCB 222035Z AUTO 00000KT 10SM SCT070 BKN095 22/21 A2988 RMK AO2 T02220207
KBCB 222015Z AUTO 00000KT 10SM SCT065 SCT075 BKN095 22/20 A2987 RMK AO2 T02220200
KBCB 221955Z AUTO 00000KT 10SM -RA SCT041 BKN085 OVC095 22/21 A2987 RMK AO2 P0001 T02220209
KBCB 221935Z AUTO 35004KT 10SM SCT014 BKN044 BKN075 23/20 A2988 RMK AO2 LTG DSNT NW T02280197
KBCB 221915Z AUTO 31004KT 10SM SCT095 SCT120 24/20 A2988 RMK AO2 T02360202
KBCB 221855Z AUTO 34011G14KT 10SM SCT016 SCT036 BKN120 22/20 A2988 RMK AO2 LTG DSNT NE AND NW P0007 T02240201
KBCB 221835Z AUTO 30007KT 7SM -TSRA SCT011 BKN018 OVC025 22/21 A2989 RMK AO2 LTG DSNT N AND E P0007 T02160205
KBCB 221815Z AUTO 27007KT 200V330 7SM -RA SCT016 BKN023 OVC075 23/20 A2988 RMK AO2 T02340199
KBCB 221755Z AUTO 09005KT 10SM SCT035 SCT042 BKN060 26/22 A2988 RMK AO2 P0001 60001 T02590215 10279 20200
KBCB 221735Z AUTO 12006KT 7SM RA BKN038 BKN055 OVC090 25/20 A2988 RMK AO2 T02530203
KBCB 221715Z AUTO 19003KT 10SM SCT090 OVC110 27/19 A2989 RMK AO2 T02700190
KBCB 221655Z AUTO 18004KT 10SM SCT120 28/19 A2990 RMK AO2 T02790188
KBCB 221635Z AUTO 15005KT 10SM SCT035 SCT042 SCT120 28/19 A2991 RMK AO2 T02760186
KBCB 221615Z AUTO 16007KT 10SM BKN035 BKN050 BKN060 27/19 A2991 RMK AO2 LTG DSNT NW T02680193
KBCB 221555Z AUTO 16003KT 10SM BKN032 BKN037 BKN065 26/19 A2992 RMK AO2 T02630192
KBCB 221535Z AUTO 20003KT 10SM BKN032 BKN037 26/19 A2992 RMK AO2 T02550192
KBCB 221515Z AUTO 00000KT 10SM CLR 26/19 A2992 RMK AO2 T02630189
KBCB 221455Z AUTO 14004KT 10SM SCT024 26/20 A2992 RMK AO2 T02590199
KBCB 221435Z AUTO 16003KT 10SM SCT019 SCT025 SCT032 25/20 A2992 RMK AO2 T02520199
KBCB 221415Z AUTO 00000KT 10SM SCT015 24/20 A2992 RMK AO2 T02360199
KBCB 221355Z AUTO 00000KT 10SM SCT013 SCT050 24/20 A2993 RMK AO2 T02350202
KBCB 221330Z AUTO 00000KT 10SM BKN013 BKN050 22/20 A2993 RMK AO2 T02230200
KBCB 221315Z AUTO 00000KT 10SM SCT011 23/20 A2993 RMK AO2 T02270200
KBCB 221255Z AUTO 00000KT 10SM SCT008 22/20 A2993 RMK AO2 T02150196
KBCB 221235Z AUTO 00000KT 10SM BKN006 21/20 A2992 RMK AO2 T02140197
KBCB 221215Z AUTO 00000KT 10SM BKN006 21/20 A2992 RMK AO2 LTG DSNT W T02090201
KBCB 221155Z AUTO 00000KT 10SM SCT004 20/20 A2992 RMK AO2 70001 T02000198 10200 20180
KBCB 221135Z AUTO 00000KT 10SM SCT004 SCT035 20/20 A2992 RMK AO2 T01950195
KBCB 221115Z AUTO 00000KT 4SM BR SCT002 OVC035 19/19 A2992 RMK AO2 T01920192
KBCB 221055Z AUTO 00000KT M1/4SM FG OVC002 19/19 A2992 RMK AO2 T01860186
KBCB 221035Z AUTO 00000KT M1/4SM FG OVC002 18/18 A2991 RMK AO2 T01830183
KBCB 221015Z AUTO 00000KT M1/4SM FG OVC002 18/18 A2991 RMK AO2 T01810181
KBCB 220955Z AUTO 00000KT 1/4SM FG OVC002 18/18 A2990 RMK AO2 T01800180
KBCB 220935Z AUTO 00000KT 7SM CLR 18/18 A2989 RMK AO2 T01830183
KBCB 220915Z AUTO 00000KT 7SM CLR 19/19 A2989 RMK AO2 T01850185
KBCB 220855Z AUTO 00000KT 7SM CLR 18/18 A2989 RMK AO2 T01840184
KBCB 220835Z AUTO 00000KT 7SM SCT120 18/18 A2988 RMK AO2 T01840184
KBCB 220815Z AUTO 00000KT 7SM CLR 19/19 A2988 RMK AO2 T01860186
KBCB 220755Z AUTO 00000KT 10SM CLR 19/19 A2988 RMK AO2 T01870187
KBCB 220735Z AUTO 00000KT 10SM CLR 19/19 A2988 RMK AO2 T01900190
KBCB 220715Z AUTO 00000KT 10SM CLR 19/19 A2988 RMK AO2 T01890187
KBCB 220655Z AUTO 00000KT 10SM CLR 19/19 A2988 RMK AO2 T01920191
KBCB 220635Z AUTO 00000KT 10SM CLR 20/19 A2988 RMK AO2 T01950191
KBCB 220615Z AUTO 00000KT 10SM CLR 20/20 A2989 RMK AO2 T01990197
KBCB 220555Z AUTO 00000KT 10SM CLR 20/20 A2989 RMK AO2 T02000198 10240 20200
KBCB 220535Z AUTO 00000KT 10SM CLR 21/20 A2990 RMK AO2 T02070202
KBCB 220515Z AUTO 00000KT 10SM CLR 21/20 A2990 RMK AO2 T02060202
KBCB 220455Z AUTO 00000KT 10SM CLR 21/20 A2990 RMK AO2 LTG DSNT SE T02140204 402630205
KBCB 220435Z AUTO 00000KT 10SM SCT090 SCT120 21/21 A2991 RMK AO2 T02130205
KBCB 220415Z AUTO 00000KT 10SM OVC090 22/21 A2991 RMK AO2 T02160206
KBCB 220355Z AUTO 00000KT 10SM OVC070 22/21 A2991 RMK AO2 T02180206
KBCB 220335Z AUTO 00000KT 10SM SCT060 OVC070 22/21 A2991 RMK AO2 LTG DSNT SE T02180207
KBCB 220315Z AUTO 00000KT 10SM OVC065 22/21 A2991 RMK AO2 LTG DSNT SE T02180208
KBCB 220255Z AUTO 00000KT 10SM SCT065 BKN080 BKN110 22/21 A2991 RMK AO2 T02230208
KBCB 220235Z AUTO 00000KT 10SM SCT080 BKN095 BKN120 22/21 A2991 RMK AO2 LTG DSNT S T02240208
KBCB 220215Z AUTO 00000KT 10SM OVC095 23/21 A2991 RMK AO2 LTG DSNT S T02250208
KBCB 220155Z AUTO 22003KT 10SM SCT045 BKN095 BKN120 23/21 A2991 RMK AO2 LTG DSNT SE T02250207
KBCB 220135Z AUTO 00000KT 10SM SCT023 BKN046 OVC090 23/21 A2990 RMK AO2 T02260207
KBCB 220115Z AUTO 00000KT 10SM BKN023 BKN050 OVC100 23/21 A2990 RMK AO2 LTG DSNT E THRU S T02300207
KBCB 220055Z AUTO 00000KT 10SM VCTS OVC025 23/21 A2989 RMK AO2 LTG DSNT S T02340211
KBCB 220035Z AUTO 00000KT 10SM BKN027 BKN032 OVC047 23/22 A2989 RMK AO2 LTG DSNT S T02330215
KBCB 220015Z AUTO 00000KT 10SM SCT027 BKN040 OVC047 24/21 A2989 RMK AO2 T02400212
KBCB 212355Z AUTO 00000KT 10SM BKN035 BKN040 OVC047 24/21 A2988 RMK AO2 T02360213 10251 20233